Time;durP1;ratioP1;P1;durP2;ratioP2;P2;SDS_P1;SDS_P2;PMS_P1;PMS_P2;Temp;Humidity;BMP_temperature;BMP_pressure;BME280_temperature;BME280_humidity;BME280_pressure;Samples;Min_cycle;Max_cycle;Signal;HPM_P1;HPM_P2
2023/09/22 00:00:55;;;;;;;22.00;16.20;;;;;;;12.82;100.00;99808.97;5084007;28;20067;-66
2023/09/22 00:03:20;;;;;;;23.00;15.63;;;;;;;12.78;100.00;99821.06;5092153;28;20669;-66
2023/09/22 00:05:46;;;;;;;20.67;14.73;;;;;;;12.73;100.00;99808.38;5090796;28;20093;-67
2023/09/22 00:08:12;;;;;;;20.83;14.80;;;;;;;12.66;100.00;99805.72;5088690;28;20048;-66
2023/09/22 00:10:37;;;;;;;21.45;14.13;;;;;;;12.60;100.00;99808.41;5090132;28;20020;-66
2023/09/22 00:13:04;;;;;;;20.63;14.13;;;;;;;12.51;100.00;99807.00;5083170;28;20441;-66
2023/09/22 00:15:29;;;;;;;22.42;14.65;;;;;;;12.45;100.00;99813.16;5087644;28;20024;-66
2023/09/22 00:17:55;;;;;;;19.42;13.77;;;;;;;12.40;100.00;99811.09;5085652;28;20028;-66
2023/09/22 00:20:21;;;;;;;21.02;13.68;;;;;;;12.33;100.00;99804.97;5084982;28;20028;-66
2023/09/22 00:22:46;;;;;;;20.20;13.13;;;;;;;12.30;100.00;99811.53;5083920;28;20020;-66
2023/09/22 00:25:13;;;;;;;22.85;13.18;;;;;;;12.27;100.00;99800.47;5090477;28;20532;-66
2023/09/22 00:27:38;;;;;;;20.38;13.00;;;;;;;12.23;100.00;99797.41;5090525;28;20077;-66
2023/09/22 00:30:04;;;;;;;18.40;12.80;;;;;;;12.21;100.00;99798.66;5085867;28;20590;-66
2023/09/22 00:32:30;;;;;;;18.58;13.10;;;;;;;12.19;100.00;99798.03;5091047;28;20044;-66
2023/09/22 00:34:55;;;;;;;19.63;13.20;;;;;;;12.15;100.00;99804.81;5089675;28;20020;-66
2023/09/22 00:37:21;;;;;;;21.30;12.82;;;;;;;12.11;100.00;99812.34;5090201;28;20024;-66
2023/09/22 00:39:47;;;;;;;17.95;12.45;;;;;;;12.10;100.00;99811.53;5090914;28;20707;-66
2023/09/22 00:42:12;;;;;;;20.05;12.88;;;;;;;12.07;100.00;99821.78;5094048;28;20107;-66
2023/09/22 00:44:37;;;;;;;18.80;12.85;;;;;;;12.04;100.00;99827.50;5080163;28;20367;-66
2023/09/22 00:47:06;;;;;;;18.92;12.63;;;;;;;12.01;100.00;99827.94;5089658;28;20036;-66
2023/09/22 00:49:32;;;;;;;17.95;12.15;;;;;;;11.97;100.00;99827.50;5087979;28;20020;-66
2023/09/22 00:51:58;;;;;;;16.50;11.60;;;;;;;11.95;100.00;99831.41;5090131;28;20044;-66
2023/09/22 00:54:24;;;;;;;17.25;12.23;;;;;;;11.93;100.00;99828.13;5083969;28;20067;-66
2023/09/22 00:56:50;;;;;;;17.83;11.98;;;;;;;11.92;100.00;99818.50;5089693;28;20012;-66
2023/09/22 00:59:15;;;;;;;16.55;11.70;;;;;;;11.86;100.00;99814.84;5088505;28;20027;-66
2023/09/22 01:01:42;;;;;;;16.45;10.90;;;;;;;11.84;100.00;99800.88;5090610;28;20503;-66
2023/09/22 01:04:08;;;;;;;17.15;11.38;;;;;;;11.83;100.00;99798.44;5085259;28;20103;-66
2023/09/22 01:06:33;;;;;;;15.98;10.75;;;;;;;11.79;100.00;99795.38;5088351;28;20028;-66
2023/09/22 01:09:05;;;;;;;19.00;11.25;;;;;;;11.80;100.00;99797.00;5083119;28;20032;-66
2023/09/22 01:11:34;;;;;;;16.52;10.85;;;;;;;11.79;100.00;99803.34;5084297;28;20073;-66
2023/09/22 01:14:00;;;;;;;15.70;10.63;;;;;;;11.79;100.00;99806.00;5086258;27;20024;-66
2023/09/22 01:16:25;;;;;;;17.63;10.73;;;;;;;11.78;100.00;99817.66;5085769;28;20078;-66
2023/09/22 01:18:51;;;;;;;16.50;10.93;;;;;;;11.76;100.00;99819.69;5087190;28;20445;-66
2023/09/22 01:21:16;;;;;;;19.17;10.88;;;;;;;11.75;100.00;99807.41;5089744;28;20081;-66
2023/09/22 01:23:41;;;;;;;21.90;11.68;;;;;;;11.76;100.00;99804.53;5087613;28;20035;-66
2023/09/22 01:26:07;;;;;;;20.13;11.45;;;;;;;11.74;100.00;99811.09;5087477;28;20031;-66
2023/09/22 01:28:32;;;;;;;20.55;11.52;;;;;;;11.73;100.00;99812.94;5086382;28;20063;-66
2023/09/22 01:30:59;;;;;;;21.83;11.68;;;;;;;11.72;100.00;99821.94;5089080;28;20028;-66
2023/09/22 01:33:24;;;;;;;21.65;12.15;;;;;;;11.70;100.00;99812.53;5087523;28;20097;-66
2023/09/22 01:35:49;;;;;;;20.52;11.77;;;;;;;11.65;100.00;99799.84;5084161;28;21431;-66
2023/09/22 01:38:19;;;;;;;20.60;11.48;;;;;;;11.62;100.00;99796.78;5085828;28;20027;-66
2023/09/22 01:40:45;;;;;;;19.27;12.02;;;;;;;11.60;100.00;99791.66;5086390;28;20119;-66
2023/09/22 01:43:11;;;;;;;23.30;12.32;;;;;;;11.58;100.00;99792.88;5082446;28;20059;-66
2023/09/22 01:45:38;;;;;;;21.98;11.93;;;;;;;11.57;100.00;99793.91;5088451;28;20491;-66
2023/09/22 01:48:04;;;;;;;20.25;13.00;;;;;;;11.56;100.00;99793.06;5084137;28;20046;-65
2023/09/22 01:50:34;;;;;;;27.23;12.60;;;;;;;11.55;100.00;99793.25;5087073;28;20595;-66
2023/09/22 01:52:59;;;;;;;21.52;12.60;;;;;;;11.52;100.00;99793.66;5085869;28;20054;-66
2023/09/22 01:55:25;;;;;;;24.17;12.50;;;;;;;11.53;100.00;99804.09;5086624;28;20474;-66
2023/09/22 01:57:50;;;;;;;21.70;12.23;;;;;;;11.51;100.00;99797.34;5082004;28;20078;-66
2023/09/22 02:00:18;;;;;;;22.17;12.68;;;;;;;11.53;100.00;99798.78;5087117;28;20468;-66
2023/09/22 02:02:43;;;;;;;23.15;13.00;;;;;;;11.53;100.00;99813.91;5082814;28;20119;-66
2023/09/22 02:05:11;;;;;;;21.88;12.77;;;;;;;11.52;100.00;99814.94;5087027;28;20102;-66
2023/09/22 02:07:36;;;;;;;24.50;13.10;;;;;;;11.55;100.00;99806.56;5083189;28;20123;-66
2023/09/22 02:10:02;;;;;;;24.05;12.35;;;;;;;11.58;100.00;99800.88;5083586;28;20096;-66
2023/09/22 02:12:27;;;;;;;22.65;12.80;;;;;;;11.63;100.00;99799.22;5086521;28;20477;-66
2023/09/22 02:14:52;;;;;;;25.08;13.40;;;;;;;11.65;100.00;99799.84;5080778;28;20034;-66
2023/09/22 02:17:18;;;;;;;22.92;12.82;;;;;;;11.67;100.00;99804.97;5088595;28;20500;-66
2023/09/22 02:19:43;;;;;;;25.17;12.98;;;;;;;11.70;100.00;99804.53;5086095;28;20039;-66
2023/09/22 02:22:09;;;;;;;23.67;13.30;;;;;;;11.71;100.00;99817.63;5085740;28;20039;-66
2023/09/22 02:24:35;;;;;;;26.88;13.02;;;;;;;11.71;100.00;99812.31;5086026;28;20028;-66
2023/09/22 02:27:00;;;;;;;24.45;13.23;;;;;;;11.71;100.00;99814.97;5085538;28;20047;-66
2023/09/22 02:29:25;;;;;;;27.92;12.65;;;;;;;11.75;100.00;99815.38;5085996;28;20679;-66
2023/09/22 02:31:50;;;;;;;25.73;13.70;;;;;;;11.75;100.00;99810.06;5087476;28;20052;-66
2023/09/22 02:34:20;;;;;;;24.08;12.52;;;;;;;11.78;100.00;99813.16;5084428;28;20107;-66
2023/09/22 02:36:46;;;;;;;23.83;12.57;;;;;;;11.78;100.00;99823.00;5087262;28;20027;-66
2023/09/22 02:39:12;;;;;;;22.58;12.32;;;;;;;11.81;100.00;99817.25;5083296;28;20028;-66
2023/09/22 02:41:37;;;;;;;24.75;11.93;;;;;;;11.87;100.00;99813.81;5084970;28;20255;-66
2023/09/22 02:44:06;;;;;;;22.77;12.38;;;;;;;11.89;100.00;99814.44;5085318;28;20036;-66
2023/09/22 02:46:31;;;;;;;24.40;12.80;;;;;;;11.92;100.00;99805.22;5082894;28;20515;-66
2023/09/22 02:48:57;;;;;;;23.92;12.00;;;;;;;11.94;100.00;99803.16;5083970;28;20025;-67
2023/09/22 02:51:22;;;;;;;20.13;12.15;;;;;;;11.97;100.00;99800.09;5086242;28;20024;-66
2023/09/22 02:53:50;;;;;;;24.30;12.35;;;;;;;12.00;100.00;99803.16;5087307;28;20028;-66
2023/09/22 02:56:16;;;;;;;26.50;12.90;;;;;;;12.02;100.00;99809.09;5082356;28;20099;-66
2023/09/22 02:58:41;;;;;;;21.00;12.45;;;;;;;12.03;100.00;99818.72;5086534;28;20461;-66
2023/09/22 03:01:08;;;;;;;24.75;13.40;;;;;;;12.01;100.00;99812.78;5086676;28;20084;-66
2023/09/22 03:03:35;;;;;;;23.40;12.07;;;;;;;11.98;100.00;99820.34;5086157;28;20056;-66
2023/09/22 03:06:00;;;;;;;23.23;12.73;;;;;;;11.96;100.00;99809.09;5087563;28;20028;-66
2023/09/22 03:08:26;;;;;;;24.90;12.63;;;;;;;11.98;100.00;99799.06;5083859;28;20024;-66
2023/09/22 03:10:51;;;;;;;24.20;13.55;;;;;;;11.95;100.00;99804.81;5087060;28;20023;-66
2023/09/22 03:13:16;;;;;;;25.45;13.27;;;;;;;11.95;100.00;99797.63;5082208;28;20035;-66
2023/09/22 03:15:41;;;;;;;26.67;12.50;;;;;;;11.93;100.00;99794.38;5086816;28;20396;-66
2023/09/22 03:18:07;;;;;;;24.20;12.52;;;;;;;11.91;100.00;99804.41;5086292;28;20019;-66
2023/09/22 03:20:32;;;;;;;22.20;12.95;;;;;;;11.91;100.00;99807.06;5083751;28;20093;-66
2023/09/22 03:22:57;;;;;;;25.25;12.55;;;;;;;11.88;100.00;99807.47;5081313;28;20016;-66
2023/09/22 03:25:23;;;;;;;21.92;12.75;;;;;;;11.86;100.00;99812.19;5077803;28;20064;-67
2023/09/22 03:27:48;;;;;;;24.27;12.43;;;;;;;11.86;100.00;99806.03;5086919;28;20482;-66
2023/09/22 03:30:15;;;;;;;21.80;12.50;;;;;;;11.81;100.00;99798.66;5085553;28;20024;-66
2023/09/22 03:32:40;;;;;;;23.48;12.70;;;;;;;11.82;100.00;99805.59;5084413;28;20032;-66
2023/09/22 03:35:06;;;;;;;23.83;13.00;;;;;;;11.82;100.00;99810.91;5087401;28;20012;-66
2023/09/22 03:37:33;;;;;;;23.25;12.00;;;;;;;11.82;100.00;99802.94;5090109;28;20094;-66
2023/09/22 03:40:09;;;;;;;23.30;12.90;;;;;;;11.81;100.00;99806.63;5078318;28;20042;-66
2023/09/22 03:42:34;;;;;;;20.08;11.80;;;;;;;11.81;100.00;99806.63;5086636;28;20028;-66
2023/09/22 03:44:59;;;;;;;23.58;12.15;;;;;;;11.84;100.00;99806.22;5087406;28;20502;-66
2023/09/22 03:47:24;;;;;;;20.08;11.60;;;;;;;11.86;100.00;99804.19;5077883;28;20553;-66
2023/09/22 03:49:50;;;;;;;21.05;12.07;;;;;;;11.88;100.00;99806.66;5078636;28;20040;-66
2023/09/22 03:52:15;;;;;;;22.30;11.60;;;;;;;11.91;100.00;99811.56;5084815;28;20024;-66
2023/09/22 03:54:40;;;;;;;18.58;11.02;;;;;;;11.92;100.00;99807.88;5083317;28;20533;-66
2023/09/22 03:57:06;;;;;;;19.13;10.90;;;;;;;11.94;100.00;99811.16;5079338;28;20023;-66
2023/09/22 03:59:32;;;;;;;20.60;10.75;;;;;;;11.94;100.00;99809.31;5085191;28;20069;-66
2023/09/22 04:01:57;;;;;;;24.60;10.95;;;;;;;11.97;100.00;99827.50;5086545;28;20046;-66
2023/09/22 04:04:22;;;;;;;17.67;9.95;;;;;;;11.98;100.00;99826.50;5079130;28;20052;-66
2023/09/22 04:06:48;;;;;;;22.33;10.23;;;;;;;11.99;100.00;99822.81;5086508;28;20531;-66
2023/09/22 04:09:13;;;;;;;17.30;9.82;;;;;;;11.97;100.00;99818.72;5093431;28;20032;-66
2023/09/22 04:11:38;;;;;;;15.77;9.20;;;;;;;11.99;100.00;99820.16;5087126;28;20539;-66
2023/09/22 04:14:03;;;;;;;17.63;9.10;;;;;;;12.00;100.00;99827.09;5079363;28;20032;-66
2023/09/22 04:16:29;;;;;;;16.27;8.95;;;;;;;12.00;100.00;99827.09;5087132;28;20443;-66
2023/09/22 04:18:55;;;;;;;14.80;9.52;;;;;;;11.99;100.00;99822.81;5082404;28;20028;-66
2023/09/22 04:21:22;;;;;;;15.13;8.95;;;;;;;11.97;100.00;99822.19;5076356;28;20027;-67
2023/09/22 04:23:51;;;;;;;13.70;8.43;;;;;;;12.00;100.00;99826.28;5084274;28;20035;-66
2023/09/22 04:26:16;;;;;;;14.60;8.10;;;;;;;11.99;100.00;99829.97;5081556;28;20043;-66
2023/09/22 04:28:45;;;;;;;16.42;8.38;;;;;;;12.00;100.00;99831.59;5090493;28;20481;-66
2023/09/22 04:31:12;;;;;;;13.90;7.75;;;;;;;11.99;100.00;99836.13;5081436;28;20016;-67
2023/09/22 04:33:38;;;;;;;14.25;7.32;;;;;;;12.00;100.00;99826.28;5084139;28;20044;-66
2023/09/22 04:36:03;;;;;;;12.68;7.22;;;;;;;12.02;100.00;99832.22;5089141;28;20024;-66
2023/09/22 04:38:29;;;;;;;10.70;7.03;;;;;;;11.99;100.00;99836.13;5090452;28;20028;-66
2023/09/22 04:40:57;;;;;;;13.35;7.18;;;;;;;11.92;100.00;99832.63;5086771;28;20506;-66
2023/09/22 04:43:23;;;;;;;13.23;6.18;;;;;;;12.01;100.00;99843.88;5086471;28;20043;-66
2023/09/22 04:45:49;;;;;;;12.70;6.30;;;;;;;11.96;100.00;99833.88;5086964;28;20526;-66
2023/09/22 04:48:14;;;;;;;9.85;6.40;;;;;;;12.02;100.00;99832.22;5085754;28;20599;-66
2023/09/22 04:50:40;;;;;;;11.23;6.57;;;;;;;12.01;100.00;99839.38;5081117;28;20386;-66
2023/09/22 04:53:05;;;;;;;11.35;5.70;;;;;;;12.01;100.00;99836.72;5088616;28;20023;-67
2023/09/22 04:55:35;;;;;;;11.68;6.00;;;;;;;12.00;100.00;99827.09;5089668;28;20382;-66
2023/09/22 04:58:04;;;;;;;13.00;6.00;;;;;;;12.01;100.00;99838.56;5088348;28;20152;-67
2023/09/22 05:00:33;;;;;;;10.38;6.10;;;;;;;11.97;100.00;99835.50;5091016;28;20024;-67
2023/09/22 05:02:59;;;;;;;9.45;5.53;;;;;;;11.98;100.00;99838.97;5086543;28;20018;-67
2023/09/22 05:05:24;;;;;;;8.07;5.53;;;;;;;11.97;100.00;99837.34;5069566;28;20028;-66
2023/09/22 05:07:50;;;;;;;7.90;5.57;;;;;;;11.93;100.00;99839.59;5084719;28;20034;-67
2023/09/22 05:10:16;;;;;;;7.55;5.10;;;;;;;11.94;100.00;99843.91;5085634;28;20035;-67
2023/09/22 05:12:41;;;;;;;12.05;5.47;;;;;;;11.93;100.00;99841.44;5081848;28;20024;-67
2023/09/22 05:15:08;;;;;;;10.43;5.25;;;;;;;11.90;100.00;99853.31;5086931;28;20095;-66
2023/09/22 05:17:34;;;;;;;11.50;5.68;;;;;;;11.87;100.00;99852.91;5090951;28;20031;-67
2023/09/22 05:20:00;;;;;;;12.82;5.55;;;;;;;11.86;100.00;99860.06;5082215;28;20027;-66
2023/09/22 05:22:25;;;;;;;11.13;5.13;;;;;;;11.86;100.00;99862.72;5079517;28;20016;-66
2023/09/22 05:24:51;;;;;;;11.10;5.50;;;;;;;11.85;100.00;99866.38;5087817;28;20512;-67
2023/09/22 05:27:17;;;;;;;10.73;5.10;;;;;;;11.85;100.00;99866.38;5079350;28;20492;-66
2023/09/22 05:29:42;;;;;;;12.25;5.47;;;;;;;11.84;100.00;99867.41;5086695;28;20022;-66
2023/09/22 05:32:11;;;;;;;8.50;5.55;;;;;;;11.84;100.00;99866.56;5082242;28;20044;-66
2023/09/22 05:34:39;;;;;;;12.00;5.75;;;;;;;11.83;100.00;99876.41;5083607;28;20026;-66
2023/09/22 05:37:04;;;;;;;10.60;5.87;;;;;;;11.81;100.00;99872.31;5085676;28;20398;-66
2023/09/22 05:39:30;;;;;;;12.18;5.57;;;;;;;11.79;100.00;99880.50;5080616;28;21017;-66
2023/09/22 05:41:55;;;;;;;8.55;5.28;;;;;;;11.78;100.00;99892.16;5089910;28;20485;-66
2023/09/22 05:44:20;;;;;;;11.48;5.28;;;;;;;11.79;100.00;99893.78;5084777;28;20017;-66
2023/09/22 05:46:46;;;;;;;9.70;5.35;;;;;;;11.79;100.00;99899.94;5080844;28;20028;-66
2023/09/22 05:49:15;;;;;;;11.55;5.22;;;;;;;11.78;100.00;99892.97;5084651;28;20031;-66
2023/09/22 05:51:41;;;;;;;10.25;5.30;;;;;;;11.79;100.00;99899.09;5087176;28;20471;-66
2023/09/22 05:54:07;;;;;;;11.25;5.30;;;;;;;11.77;100.00;99903.78;5087414;28;20571;-66
2023/09/22 05:56:32;;;;;;;13.00;4.95;;;;;;;11.77;100.00;99896.63;5081692;28;20020;-66
2023/09/22 05:58:57;;;;;;;14.80;5.47;;;;;;;11.74;100.00;99891.72;5086299;28;20016;-66
2023/09/22 06:01:23;;;;;;;8.02;5.30;;;;;;;11.79;100.00;99902.59;5084785;28;20550;-66
2023/09/22 06:03:48;;;;;;;11.20;5.03;;;;;;;11.79;100.00;99901.78;5085927;28;20032;-66
2023/09/22 06:06:15;;;;;;;9.07;5.07;;;;;;;11.84;100.00;99903.81;5081224;28;20024;-66
2023/09/22 06:08:42;;;;;;;8.90;4.93;;;;;;;11.84;100.00;99906.47;5081596;28;20115;-66
2023/09/22 06:11:08;;;;;;;15.15;4.90;;;;;;;11.87;100.00;99914.91;5089171;28;20027;-66
2023/09/22 06:13:34;;;;;;;13.02;5.22;;;;;;;11.89;100.00;99917.38;5078629;28;20260;-66
2023/09/22 06:16:00;;;;;;;12.90;4.80;;;;;;;11.93;100.00;99918.59;5085899;28;20059;-67
2023/09/22 06:18:25;;;;;;;9.75;4.90;;;;;;;11.94;100.00;99918.41;5087153;28;20030;-66
2023/09/22 06:21:01;;;;;;;8.38;4.97;;;;;;;11.98;100.00;99913.47;5078190;28;20028;-66
2023/09/22 06:23:27;;;;;;;11.15;4.90;;;;;;;12.00;100.00;99916.75;5084396;28;20447;-66
2023/09/22 06:26:08;;;;;;;13.43;4.80;;;;;;;12.01;100.00;99921.88;5083949;28;20476;-66
2023/09/22 06:28:33;;;;;;;9.60;4.95;;;;;;;12.02;100.00;99920.84;5081286;28;20028;-66
2023/09/22 06:31:00;;;;;;;12.25;4.80;;;;;;;12.03;100.00;99925.16;5080592;28;20418;-66
2023/09/22 06:33:25;;;;;;;6.13;4.80;;;;;;;12.07;100.00;99926.38;5088878;28;20423;-66
2023/09/22 06:35:56;;;;;;;8.65;5.00;;;;;;;12.09;100.00;99931.50;5089158;28;20027;-67
2023/09/22 06:38:22;;;;;;;11.40;4.70;;;;;;;12.12;100.00;99933.75;5084870;28;20021;-66
2023/09/22 06:40:47;;;;;;;7.20;4.97;;;;;;;12.14;100.00;99931.72;5084454;28;20024;-66
2023/09/22 06:43:13;;;;;;;7.03;4.72;;;;;;;12.19;100.00;99937.28;5088157;28;20036;-66
2023/09/22 06:45:41;;;;;;;8.50;4.20;;;;;;;12.22;100.00;99931.53;5082057;28;20481;-66
2023/09/22 06:48:06;;;;;;;7.45;4.38;;;;;;;12.26;100.00;99938.09;5077775;28;20027;-66
2023/09/22 06:50:35;;;;;;;8.05;4.28;;;;;;;12.30;100.00;99938.50;5079738;28;20107;-67
2023/09/22 06:53:01;;;;;;;10.77;5.00;;;;;;;12.31;100.00;99943.63;5087694;28;20497;-66
2023/09/22 06:55:30;;;;;;;7.22;3.83;;;;;;;12.28;100.00;99941.38;5088059;28;20023;-66
2023/09/22 06:57:56;;;;;;;6.97;3.95;;;;;;;12.37;100.00;99948.13;5080472;28;20111;-66
2023/09/22 07:00:24;;;;;;;5.35;3.65;;;;;;;12.40;100.00;99949.56;5080662;28;20016;-66
2023/09/22 07:02:49;;;;;;;9.45;3.72;;;;;;;12.43;100.00;99948.31;5082981;28;20028;-66
2023/09/22 07:05:16;;;;;;;6.00;3.63;;;;;;;12.44;100.00;99956.13;5078905;28;20051;-66
2023/09/22 07:07:42;;;;;;;8.00;3.60;;;;;;;12.48;100.00;99960.03;5080384;28;20020;-66
2023/09/22 07:10:09;;;;;;;6.38;3.33;;;;;;;12.53;100.00;99970.06;5085970;28;20399;-66
2023/09/22 07:12:38;;;;;;;5.35;3.30;;;;;;;12.52;100.00;99953.25;5083468;28;20028;-66
2023/09/22 07:15:04;;;;;;;5.32;3.10;;;;;;;12.57;100.00;99964.13;5084320;28;20497;-66
2023/09/22 07:17:30;;;;;;;4.78;2.70;;;;;;;12.60;100.00;99961.03;5087513;28;20096;-66
2023/09/22 07:19:55;;;;;;;7.57;2.88;;;;;;;12.64;100.00;99961.44;5084989;28;20044;-66
2023/09/22 07:22:20;;;;;;;5.28;2.72;;;;;;;12.65;100.00;99963.06;5084896;28;20032;-66
2023/09/22 07:24:46;;;;;;;5.85;2.90;;;;;;;12.70;100.00;99964.09;5085745;28;20509;-66
2023/09/22 07:27:11;;;;;;;8.85;2.70;;;;;;;12.76;100.00;99961.66;5085866;28;20084;-66
2023/09/22 07:29:36;;;;;;;6.10;2.53;;;;;;;12.80;100.00;99970.88;5086563;28;20020;-66
2023/09/22 07:32:03;;;;;;;4.35;2.20;;;;;;;12.83;100.00;99970.47;5085705;28;20173;-66
2023/09/22 07:34:28;;;;;;;3.95;2.28;;;;;;;12.88;100.00;99981.31;5079111;28;20020;-66
2023/09/22 07:36:54;;;;;;;3.35;2.10;;;;;;;12.91;100.00;99983.56;5083151;28;20027;-66
2023/09/22 07:39:19;;;;;;;4.10;2.20;;;;;;;12.95;100.00;99985.59;5077042;28;20024;-66
2023/09/22 07:41:45;;;;;;;4.63;2.20;;;;;;;13.01;100.00;99999.97;5086888;28;20028;-66
2023/09/22 07:44:10;;;;;;;7.15;2.28;;;;;;;13.06;100.00;99999.34;5084566;28;20499;-66
2023/09/22 07:46:35;;;;;;;3.95;1.80;;;;;;;13.06;100.00;100013.50;5076497;28;20143;-66
2023/09/22 07:49:01;;;;;;;5.38;1.88;;;;;;;13.08;100.00;100007.94;5079652;28;20020;-66
2023/09/22 07:51:27;;;;;;;5.97;1.70;;;;;;;13.10;100.00;100014.72;5082482;28;20031;-66
2023/09/22 07:53:52;;;;;;;7.90;2.03;;;;;;;13.16;100.00;100024.53;5086960;28;20102;-66
2023/09/22 07:56:18;;;;;;;5.47;2.05;;;;;;;13.22;100.00;100023.75;5087799;28;20033;-65
2023/09/22 07:58:44;;;;;;;3.65;1.77;;;;;;;13.29;100.00;100026.38;5088419;28;20620;-66
2023/09/22 08:01:15;;;;;;;4.55;1.90;;;;;;;13.29;100.00;100029.06;5085298;28;20427;-65
2023/09/22 08:03:42;;;;;;;4.13;1.90;;;;;;;13.33;99.97;100033.78;5085945;28;20484;-66
2023/09/22 08:06:07;;;;;;;4.32;1.85;;;;;;;13.36;99.34;100027.22;5088751;28;20061;-66
2023/09/22 08:08:33;;;;;;;6.07;1.67;;;;;;;13.39;98.95;100039.31;5083267;28;20435;-66
2023/09/22 08:10:59;;;;;;;2.47;1.60;;;;;;;13.41;97.79;100030.06;5087295;28;20039;-66
2023/09/22 08:13:25;;;;;;;6.82;1.90;;;;;;;13.46;97.29;100034.78;5083086;28;20020;-66
2023/09/22 08:15:51;;;;;;;2.35;1.50;;;;;;;13.55;97.63;100037.00;5088996;28;20020;-65
2023/09/22 08:18:16;;;;;;;3.03;1.88;;;;;;;13.62;97.52;100027.16;5087654;28;21716;-66
2023/09/22 08:20:41;;;;;;;4.03;1.45;;;;;;;13.73;97.70;100032.84;5082089;28;20032;-67
2023/09/22 08:23:07;;;;;;;5.40;1.65;;;;;;;13.74;95.93;100032.63;5086875;28;20031;-65
2023/09/22 08:25:32;;;;;;;4.32;1.70;;;;;;;13.74;95.02;100037.97;5086166;28;20031;-66
2023/09/22 08:27:58;;;;;;;4.75;1.67;;;;;;;13.75;94.97;100047.63;5089275;28;20085;-66
2023/09/22 08:30:25;;;;;;;3.67;1.40;;;;;;;13.71;94.01;100037.59;5086473;28;20507;-66
2023/09/22 08:32:50;;;;;;;2.35;1.48;;;;;;;13.68;93.28;100043.34;5085558;28;20035;-66
2023/09/22 08:35:16;;;;;;;3.47;1.70;;;;;;;13.68;92.55;100043.34;5084298;28;20020;-65
2023/09/22 08:37:42;;;;;;;1.92;1.25;;;;;;;13.75;93.14;100047.63;5093995;28;20050;-66
2023/09/22 08:40:09;;;;;;;4.25;1.40;;;;;;;13.85;93.66;100042.66;5087584;28;20503;-66
2023/09/22 08:42:38;;;;;;;2.55;1.65;;;;;;;13.90;92.59;100055.38;5088575;28;20036;-66
2023/09/22 08:45:08;;;;;;;5.22;1.40;;;;;;;13.92;92.38;100056.81;5085665;28;20103;-66
2023/09/22 08:47:39;;;;;;;3.58;1.45;;;;;;;14.03;92.67;100054.50;5088060;28;20016;-66
2023/09/22 08:50:17;;;;;;;3.78;1.55;;;;;;;14.17;92.90;100066.78;5083730;28;20058;-65
2023/09/22 08:52:46;;;;;;;3.10;1.30;;;;;;;14.19;91.79;100051.34;5083051;28;20607;-66
2023/09/22 08:55:13;;;;;;;3.80;1.30;;;;;;;14.26;91.33;100054.81;5091004;28;20027;-66
2023/09/22 08:57:44;;;;;;;5.72;1.50;;;;;;;14.30;91.30;100052.53;5086831;28;20078;-66
2023/09/22 09:00:20;;;;;;;2.25;1.50;;;;;;;14.35;91.42;100061.53;5084682;28;20099;-65
2023/09/22 09:02:51;;;;;;;2.60;1.25;;;;;;;14.33;90.23;100063.59;5089525;28;20066;-66
2023/09/22 09:05:27;;;;;;;3.83;1.50;;;;;;;14.38;90.63;100066.44;5081268;28;20052;-66
2023/09/22 09:07:53;;;;;;;2.40;1.30;;;;;;;14.43;90.52;100055.94;5084259;28;20047;-66
2023/09/22 09:10:34;;;;;;;3.42;1.48;;;;;;;14.39;89.23;100064.56;5085527;28;20055;-66
2023/09/22 09:13:01;;;;;;;3.60;1.40;;;;;;;14.30;88.66;100073.88;5085557;28;20031;-66
2023/09/22 09:15:27;;;;;;;2.85;1.30;;;;;;;14.32;87.49;100086.00;5095179;28;20018;-65
2023/09/22 09:18:03;;;;;;;3.08;1.15;;;;;;;14.26;87.05;100084.19;5078652;28;20107;-68
2023/09/22 09:20:30;;;;;;;2.10;1.30;;;;;;;14.18;86.95;100079.09;5083203;28;20760;-65
2023/09/22 09:22:55;;;;;;;3.80;1.48;;;;;;;14.08;86.61;100086.72;5086834;28;20458;-65
2023/09/22 09:25:21;;;;;;;3.97;1.33;;;;;;;14.06;86.79;100078.09;5086970;28;20490;-65
2023/09/22 09:27:46;;;;;;;4.32;1.75;;;;;;;14.03;87.13;100084.69;5089307;28;20078;-66
2023/09/22 09:30:13;;;;;;;2.63;1.20;;;;;;;14.05;86.54;100079.13;5088701;28;20481;-66
2023/09/22 09:32:40;;;;;;;3.80;1.10;;;;;;;14.17;86.41;100083.59;5078747;28;20118;-65
2023/09/22 09:35:06;;;;;;;4.38;1.20;;;;;;;14.25;85.13;100077.19;5084087;28;20036;-65
2023/09/22 09:37:31;;;;;;;3.70;1.00;;;;;;;14.33;84.96;100084.13;5076411;28;20036;-66
2023/09/22 09:39:57;;;;;;;1.80;1.00;;;;;;;14.36;84.89;100087.19;5081935;28;20027;-65
2023/09/22 09:42:24;;;;;;;2.78;1.10;;;;;;;14.47;84.51;100086.56;5081355;28;20071;-65
2023/09/22 09:44:54;;;;;;;3.25;1.10;;;;;;;14.54;83.84;100089.19;5082423;28;20028;-65
2023/09/22 09:47:35;;;;;;;3.22;1.17;;;;;;;14.71;83.31;100092.16;5084358;28;20024;-65
2023/09/22 09:50:04;;;;;;;3.03;0.93;;;;;;;14.84;82.26;100095.56;5080731;28;20033;-66
2023/09/22 09:52:52;;;;;;;3.08;1.10;;;;;;;14.90;81.17;100099.22;5088554;28;20024;-65
2023/09/22 09:55:20;;;;;;;4.40;1.10;;;;;;;14.91;81.25;100082.16;5080673;28;20670;-65
2023/09/22 09:57:46;;;;;;;4.63;1.10;;;;;;;14.97;80.60;100094.66;5086218;28;20016;-65
2023/09/22 10:00:14;;;;;;;2.80;0.90;;;;;;;15.00;80.24;100099.56;5081501;28;20385;-65
2023/09/22 10:02:44;;;;;;;3.53;0.98;;;;;;;15.00;79.51;100090.72;5084583;28;20020;-66
2023/09/22 10:05:21;;;;;;;3.65;1.15;;;;;;;15.01;79.39;100098.53;5080245;28;20096;-65
2023/09/22 10:07:48;;;;;;;2.92;1.17;;;;;;;15.15;79.71;100094.72;5080467;28;20024;-65
2023/09/22 10:10:16;;;;;;;4.05;1.10;;;;;;;15.38;78.91;100094.13;5084528;28;20537;-66
2023/09/22 10:12:43;;;;;;;1.63;0.98;;;;;;;15.60;79.37;100088.34;5081910;28;20028;-66
2023/09/22 10:15:10;;;;;;;3.92;1.23;;;;;;;15.78;78.58;100094.53;5087005;28;20024;-66
2023/09/22 10:17:36;;;;;;;1.50;0.90;;;;;;;15.94;78.76;100082.44;5075799;28;20032;-66
2023/09/22 10:20:06;;;;;;;3.22;1.05;;;;;;;16.08;77.36;100081.22;5084699;28;20044;-65
2023/09/22 10:22:32;;;;;;;1.75;0.80;;;;;;;16.16;77.10;100093.47;5081006;28;20057;-64
2023/09/22 10:25:13;;;;;;;4.03;1.17;;;;;;;16.04;75.18;100088.06;5085410;28;20078;-66
2023/09/22 10:27:57;;;;;;;1.98;1.00;;;;;;;15.89;75.20;100102.88;5083828;28;20038;-66
2023/09/22 10:30:43;;;;;;;1.30;0.80;;;;;;;15.68;74.16;100088.09;5083951;28;20069;-68
2023/09/22 10:33:25;;;;;;;2.10;0.90;;;;;;;15.55;74.05;100083.63;5072607;28;20067;-68
2023/09/22 10:35:51;;;;;;;2.22;0.98;;;;;;;15.52;74.68;100085.94;5081562;28;20378;-68
2023/09/22 10:38:19;;;;;;;3.05;0.88;;;;;;;15.50;74.26;100081.63;5087254;28;20023;-66
2023/09/22 10:41:00;;;;;;;2.53;0.90;;;;;;;15.55;74.22;100089.00;5083433;28;20695;-65
2023/09/22 10:43:26;;;;;;;2.10;0.90;;;;;;;15.57;74.30;100086.91;5087457;28;20027;-66
2023/09/22 10:45:52;;;;;;;2.22;0.80;;;;;;;15.53;73.91;100091.06;5079934;28;20039;-66
2023/09/22 10:48:18;;;;;;;4.03;1.05;;;;;;;15.55;74.56;100080.97;5079578;28;20032;-66
2023/09/22 10:50:48;;;;;;;3.55;1.20;;;;;;;15.68;74.56;100082.72;5084718;28;20019;-66
2023/09/22 10:53:14;;;;;;;2.35;0.98;;;;;;;15.79;73.73;100088.16;5084507;28;20016;-65
2023/09/22 10:55:42;;;;;;;2.35;0.90;;;;;;;15.97;73.79;100089.19;5087401;28;20016;-66
2023/09/22 10:58:09;;;;;;;2.30;1.05;;;;;;;15.98;73.44;100082.81;5080425;28;20020;-65
2023/09/22 11:00:38;;;;;;;3.05;0.90;;;;;;;15.88;72.66;100087.84;5087309;28;20031;-66
2023/09/22 11:03:08;;;;;;;;;;;;;;;15.90;72.59;100096.47;5088225;28;20025;-65
2023/09/22 11:05:37;;;;;;;2.40;0.90;;;;;;;15.82;72.07;100086.06;5084993;28;19916;-66
2023/09/22 11:08:16;;;;;;;2.38;1.10;;;;;;;15.83;72.65;100090.38;5085947;28;20106;-65
2023/09/22 11:10:48;;;;;;;2.72;1.10;;;;;;;15.90;72.63;100085.75;5085518;28;20042;-65
2023/09/22 11:13:15;;;;;;;2.90;1.20;;;;;;;15.90;72.21;100096.47;5083340;28;20024;-66
2023/09/22 11:15:53;;;;;;;1.88;0.90;;;;;;;15.86;71.96;100082.72;5083739;28;20377;-66